Time;durP1;ratioP1;P1;durP2;ratioP2;P2;SDS_P1;SDS_P2;PMS_P1;PMS_P2;Temp;Humidity;BMP_temperature;BMP_pressure;BME280_temperature;BME280_humidity;BME280_pressure;Samples;Min_cycle;Max_cycle;Signal;HPM_P1;HPM_P2
2021/05/26 00:00:07;;;;;;;5.97;2.83;;;;;;;12.60;65.03;101324.63;5093573;28;20528;-87
2021/05/26 00:02:34;;;;;;;11.20;2.95;;;;;;;12.51;65.01;101328.34;5093990;28;20539;-86
2021/05/26 00:05:00;;;;;;;6.43;3.17;;;;;;;12.44;65.68;101329.38;5094258;28;20028;-86
2021/05/26 00:07:27;;;;;;;7.32;2.33;;;;;;;12.46;65.50;101322.22;5093642;28;20028;-86
2021/05/26 00:09:53;;;;;;;7.18;2.42;;;;;;;12.38;65.49;101319.72;5093461;28;20149;-85
2021/05/26 00:12:19;;;;;;;5.72;2.20;;;;;;;12.44;65.29;101318.72;5093156;28;20077;-86
2021/05/26 00:14:46;;;;;;;5.88;2.08;;;;;;;12.29;65.19;101311.94;5093551;28;20024;-86
2021/05/26 00:17:12;;;;;;;3.83;2.17;;;;;;;12.31;64.83;101323.41;5093074;28;20358;-86
2021/05/26 00:19:42;;;;;;;5.55;1.98;;;;;;;11.97;65.57;101324.94;5093170;28;20028;-86
2021/05/26 00:22:09;;;;;;;6.50;2.90;;;;;;;11.98;65.93;101316.03;5093274;28;20028;-86
2021/05/26 00:24:35;;;;;;;7.32;3.05;;;;;;;12.09;65.45;101317.66;5093020;28;20390;-87
2021/05/26 00:27:02;;;;;;;11.45;3.08;;;;;;;12.18;64.96;101316.59;5093593;28;20474;-87
2021/05/26 00:29:28;;;;;;;14.43;3.45;;;;;;;12.21;65.19;101312.09;5093247;28;20031;-86
2021/05/26 00:31:55;;;;;;;7.65;2.92;;;;;;;12.27;64.71;101327.91;5093318;28;20120;-86
2021/05/26 00:34:21;;;;;;;11.38;3.78;;;;;;;12.15;65.06;101330.81;5093012;28;20035;-88
2021/05/26 00:36:48;;;;;;;5.10;2.88;;;;;;;12.20;64.87;101315.66;5092708;28;20040;-87
2021/05/26 00:39:14;;;;;;;5.95;3.70;;;;;;;12.29;64.57;101310.16;5094032;28;20032;-90
2021/05/26 00:41:41;;;;;;;11.73;3.70;;;;;;;12.29;64.79;101310.16;5092830;28;20534;-89
2021/05/26 00:44:08;;;;;;;13.75;4.57;;;;;;;12.33;64.86;101321.59;5093236;28;20024;-89
2021/05/26 00:46:43;;;;;;;7.97;4.60;;;;;;;12.41;64.92;101306.38;5092551;28;20036;-91
2021/05/26 00:49:10;;;;;;;8.52;4.72;;;;;;;12.35;64.83;101308.28;5085800;28;20489;-88
2021/05/26 00:51:36;;;;;;;10.38;4.53;;;;;;;12.33;65.54;101288.84;5092670;28;20016;-89
2021/05/26 00:54:03;;;;;;;10.68;5.10;;;;;;;12.36;65.00;101288.78;5079784;28;20069;-91
2021/05/26 00:56:31;;;;;;;10.27;4.40;;;;;;;12.41;65.19;101281.56;5074532;28;20451;-90
2021/05/26 00:58:59;;;;;;;10.52;5.68;;;;;;;12.44;65.15;101284.19;5092656;28;20355;-90
2021/05/26 01:01:25;;;;;;;12.65;4.97;;;;;;;12.46;66.08;101283.25;5092842;28;20039;-90
2021/05/26 01:03:54;;;;;;;9.93;4.18;;;;;;;12.52;65.64;101274.25;5092680;28;20032;-89
2021/05/26 01:06:20;;;;;;;13.40;4.68;;;;;;;12.55;65.93;101270.69;5091357;28;20631;-88
2021/05/26 01:08:47;;;;;;;10.18;4.85;;;;;;;12.60;66.25;101267.00;5093117;28;20020;-87
2021/05/26 01:11:13;;;;;;;11.73;5.30;;;;;;;12.59;66.17;101264.38;5092544;28;20115;-87
2021/05/26 01:13:40;;;;;;;9.63;5.93;;;;;;;12.61;66.44;101268.75;5092861;28;20115;-88
2021/05/26 01:16:06;;;;;;;16.02;6.43;;;;;;;12.64;66.12;101269.59;5092750;28;20028;-87
2021/05/26 01:18:35;;;;;;;13.05;6.15;;;;;;;12.66;66.41;101281.06;5092528;28;20107;-88
2021/05/26 01:21:05;;;;;;;9.63;5.78;;;;;;;12.72;66.56;101280.94;5092738;28;20378;-89
2021/05/26 01:23:31;;;;;;;14.60;7.65;;;;;;;12.68;66.10;101288.09;5092670;28;20028;-88
2021/05/26 01:26:06;;;;;;;18.73;7.78;;;;;;;12.73;66.94;101282.69;5091681;28;20032;-89
2021/05/26 01:28:38;;;;;;;21.48;6.78;;;;;;;12.33;68.41;101286.19;5092550;28;20025;-89
2021/05/26 01:31:05;;;;;;;16.88;6.40;;;;;;;12.50;67.75;101265.44;5092402;28;20471;-89
2021/05/26 01:33:32;;;;;;;12.80;4.93;;;;;;;12.47;68.19;101276.13;5092662;28;20028;-90
2021/05/26 01:36:05;;;;;;;7.45;3.83;;;;;;;12.46;67.75;101274.38;5091456;28;20035;-88
2021/05/26 01:38:32;;;;;;;9.95;4.50;;;;;;;12.48;67.37;101256.63;5096837;28;20024;-90
2021/05/26 01:41:01;;;;;;;7.57;3.10;;;;;;;12.46;67.64;101269.06;5096017;28;20027;-89
2021/05/26 01:43:28;;;;;;;11.05;3.05;;;;;;;12.49;67.30;101255.72;5096797;28;20038;-89
2021/05/26 01:45:55;;;;;;;5.40;3.67;;;;;;;12.55;67.02;101254.72;5096336;28;20474;-89
2021/05/26 01:48:22;;;;;;;9.70;3.75;;;;;;;12.39;67.32;101256.84;5096438;28;20103;-88
2021/05/26 01:50:49;;;;;;;7.65;3.15;;;;;;;12.52;67.37;101247.66;5096335;28;20048;-90
2021/05/26 01:53:15;;;;;;;8.13;3.70;;;;;;;12.54;67.24;101243.22;5096237;28;20028;-89
2021/05/26 01:55:42;;;;;;;6.22;2.97;;;;;;;12.42;67.56;101241.72;5096359;28;20074;-89
2021/05/26 01:58:12;;;;;;;8.15;3.40;;;;;;;12.50;66.71;101244.19;5095453;28;20122;-89
2021/05/26 02:00:44;;;;;;;6.22;2.70;;;;;;;12.56;66.61;101237.84;5096252;28;20099;-89
2021/05/26 02:03:11;;;;;;;10.48;3.40;;;;;;;12.48;67.00;101243.34;5094835;28;20027;-90
2021/05/26 02:05:50;;;;;;;8.18;3.55;;;;;;;12.61;67.17;101239.50;5094977;28;20035;-88
2021/05/26 02:08:16;;;;;;;12.98;4.30;;;;;;;12.65;66.96;101236.78;5095624;28;20431;-89
2021/05/26 02:13:29;;;;;;;10.57;4.18;;;;;;;12.61;67.45;101236.84;5095658;28;20044;-88
2021/05/26 02:15:55;;;;;;;10.68;4.50;;;;;;;12.75;67.44;101228.56;5077732;28;20089;-87
2021/05/26 02:18:26;;;;;;;13.88;4.15;;;;;;;12.76;67.90;101234.75;5095751;28;20021;-89
2021/05/26 02:20:52;;;;;;;11.77;4.75;;;;;;;12.68;68.42;101221.63;5095459;28;20474;-89
2021/05/26 02:23:19;;;;;;;14.45;6.10;;;;;;;12.66;68.42;101231.44;5095706;28;20082;-86
2021/05/26 02:25:45;;;;;;;14.10;4.28;;;;;;;12.70;68.17;101229.59;5095818;28;20024;-87
2021/05/26 02:28:12;;;;;;;14.82;4.70;;;;;;;12.90;67.83;101229.13;5095679;28;20036;-89
2021/05/26 02:30:41;;;;;;;10.75;4.72;;;;;;;12.84;67.63;101224.81;5094943;28;20036;-88
2021/05/26 02:33:16;;;;;;;10.23;3.85;;;;;;;12.97;68.03;101213.88;5095531;28;20029;-88
2021/05/26 02:35:53;;;;;;;15.00;4.80;;;;;;;13.03;67.62;101213.75;5095483;28;20046;-88
2021/05/26 02:38:19;;;;;;;14.30;4.40;;;;;;;13.01;67.93;101218.22;5095224;28;20031;-89
2021/05/26 02:40:46;;;;;;;15.55;4.50;;;;;;;12.99;67.72;101220.06;5095273;28;20024;-87
2021/05/26 02:43:12;;;;;;;14.63;4.65;;;;;;;13.03;67.85;101208.41;5095433;28;20024;-88
2021/05/26 02:45:39;;;;;;;11.55;4.35;;;;;;;13.00;67.90;101221.81;5090657;28;20089;-86
2021/05/26 02:48:06;;;;;;;9.15;3.85;;;;;;;12.94;68.29;101217.50;5087325;28;20028;-88
2021/05/26 02:50:32;;;;;;;19.73;5.15;;;;;;;12.93;68.12;101216.63;5076397;28;20020;-87
2021/05/26 02:52:59;;;;;;;14.50;4.50;;;;;;;12.99;68.04;101220.06;5077073;28;20043;-88
2021/05/26 02:55:26;;;;;;;19.55;4.82;;;;;;;13.02;67.97;101217.31;5077383;28;20048;-86
2021/05/26 02:57:53;;;;;;;8.10;4.40;;;;;;;13.04;67.96;101215.50;5094774;28;20024;-87
2021/05/26 03:00:21;;;;;;;12.18;4.55;;;;;;;13.10;67.70;101212.69;5095103;28;20543;-88
2021/05/26 03:02:48;;;;;;;12.00;4.43;;;;;;;13.02;68.40;101209.31;5095081;28;20076;-88
2021/05/26 03:05:19;;;;;;;16.52;4.75;;;;;;;13.15;67.69;101208.13;5095293;28;20059;-88
2021/05/26 03:07:46;;;;;;;17.40;4.90;;;;;;;13.19;67.73;101208.91;5094731;28;20122;-88
2021/05/26 03:10:15;;;;;;;10.43;4.15;;;;;;;13.14;67.97;101203.72;5094886;28;20028;-88
2021/05/26 03:12:42;;;;;;;17.90;4.50;;;;;;;13.13;68.33;101207.28;5094325;28;20032;-86
2021/05/26 03:15:12;;;;;;;15.82;4.50;;;;;;;13.20;67.91;101206.22;5094663;28;20359;-86
2021/05/26 03:17:39;;;;;;;21.55;5.80;;;;;;;13.19;67.78;101209.78;5094404;28;20039;-86
2021/05/26 03:20:08;;;;;;;13.75;4.80;;;;;;;13.24;67.87;101199.91;5094770;28;20024;-87
2021/05/26 03:22:35;;;;;;;14.27;5.53;;;;;;;13.18;68.26;101209.81;5094706;28;20024;-86
2021/05/26 03:25:01;;;;;;;21.33;5.43;;;;;;;13.11;68.17;101203.81;5076394;28;20035;-87
2021/05/26 03:27:34;;;;;;;21.65;4.72;;;;;;;13.12;68.07;101216.16;5094571;28;20024;-86
2021/05/26 03:30:04;;;;;;;25.20;5.35;;;;;;;12.98;68.32;101202.34;5094426;28;20471;-87
2021/05/26 03:32:31;;;;;;;19.42;4.82;;;;;;;13.02;68.06;101204.00;5094394;28;20016;-86
2021/05/26 03:34:57;;;;;;;20.88;5.82;;;;;;;13.10;67.49;101196.72;5075234;28;20032;-86
2021/05/26 03:37:23;;;;;;;19.08;5.43;;;;;;;12.94;67.76;101198.88;5094298;28;20020;-87
2021/05/26 03:39:49;;;;;;;15.27;4.68;;;;;;;12.85;68.29;101197.31;5094376;28;20093;-86
2021/05/26 03:42:16;;;;;;;20.08;6.18;;;;;;;12.74;67.95;101199.34;5075832;28;20379;-86
2021/05/26 03:44:42;;;;;;;20.10;5.97;;;;;;;12.57;68.36;101199.72;5075692;28;20020;-86
2021/05/26 03:47:08;;;;;;;21.02;6.43;;;;;;;12.70;67.70;101201.22;5093237;28;20498;-86
2021/05/26 03:49:34;;;;;;;22.52;6.38;;;;;;;12.74;67.55;101199.34;5093364;28;20023;-86
2021/05/26 03:52:01;;;;;;;15.05;6.35;;;;;;;12.60;67.77;101203.19;5093799;28;20020;-87
2021/05/26 03:54:28;;;;;;;18.55;6.45;;;;;;;12.43;67.63;101194.72;5075909;28;20020;-87
2021/05/26 03:56:54;;;;;;;20.65;7.32;;;;;;;12.35;68.22;101194.00;5094055;28;20102;-86
2021/05/26 03:59:20;;;;;;;20.35;6.32;;;;;;;12.39;68.39;101201.91;5092850;28;20020;-87
2021/05/26 04:01:46;;;;;;;15.35;5.50;;;;;;;12.62;67.29;101201.41;5094095;28;20359;-88
2021/05/26 04:04:13;;;;;;;16.73;5.47;;;;;;;12.61;67.63;101202.28;5093953;28;20030;-87
2021/05/26 04:06:39;;;;;;;20.75;6.28;;;;;;;12.59;67.05;101200.59;5094071;28;20024;-87
2021/05/26 04:09:05;;;;;;;13.20;5.53;;;;;;;12.72;66.79;101201.16;5093876;28;20482;-87
2021/05/26 04:11:31;;;;;;;18.30;5.90;;;;;;;12.58;67.46;101205.00;5093890;28;20475;-86
2021/05/26 04:13:58;;;;;;;17.67;6.97;;;;;;;12.52;67.53;101198.97;5093881;28;20028;-87
2021/05/26 04:16:24;;;;;;;12.38;5.80;;;;;;;12.68;67.68;101204.81;5093552;28;20039;-87
2021/05/26 04:18:50;;;;;;;16.58;4.70;;;;;;;12.78;67.35;101204.56;5093626;28;20119;-87
2021/05/26 04:21:16;;;;;;;13.18;5.45;;;;;;;12.67;67.71;101203.06;5093143;28;20028;-85
2021/05/26 04:23:42;;;;;;;14.07;5.90;;;;;;;12.75;67.37;101201.97;5093100;28;20024;-87
2021/05/26 04:26:09;;;;;;;15.63;5.95;;;;;;;12.77;67.53;101191.28;5093747;28;20027;-86
2021/05/26 04:28:42;;;;;;;14.05;6.28;;;;;;;12.84;66.73;101195.56;5092985;28;20051;-87
2021/05/26 04:31:10;;;;;;;18.13;6.03;;;;;;;12.83;66.97;101195.59;5094310;28;20020;-86
2021/05/26 04:33:36;;;;;;;13.40;5.15;;;;;;;12.66;67.20;101206.63;5103558;28;20494;-84
2021/05/26 04:36:02;;;;;;;18.05;6.72;;;;;;;12.66;67.94;101201.31;5106336;28;20028;-87
2021/05/26 04:38:28;;;;;;;15.90;5.75;;;;;;;12.74;67.50;101199.34;5097311;28;20020;-87
2021/05/26 04:40:55;;;;;;;17.00;5.40;;;;;;;12.62;67.86;101197.84;5102356;28;20016;-87
2021/05/26 04:43:21;;;;;;;15.48;5.97;;;;;;;12.69;67.60;101196.78;5108068;28;20031;-86
2021/05/26 04:45:47;;;;;;;15.00;6.28;;;;;;;12.83;67.38;101199.13;5098125;28;20032;-86
2021/05/26 04:48:14;;;;;;;23.58;7.20;;;;;;;12.57;67.68;101192.66;5106000;28;20051;-86
2021/05/26 04:50:40;;;;;;;22.05;6.78;;;;;;;12.79;67.41;101197.47;5092785;28;20060;-87
2021/05/26 04:53:06;;;;;;;19.15;7.20;;;;;;;12.81;67.40;101200.97;5105018;28;20024;-86
2021/05/26 04:55:32;;;;;;;16.05;6.57;;;;;;;12.86;67.18;101199.06;5104583;28;20414;-87
2021/05/26 04:58:00;;;;;;;20.60;6.57;;;;;;;12.87;67.14;101200.81;5105543;28;20077;-87
2021/05/26 05:00:27;;;;;;;13.13;6.60;;;;;;;12.94;67.13;101189.09;5095678;28;20151;-85
2021/05/26 05:02:53;;;;;;;17.83;7.25;;;;;;;12.93;66.69;101195.38;5099864;28;20016;-86
2021/05/26 05:05:20;;;;;;;13.93;6.85;;;;;;;12.96;66.68;101194.41;5106775;28;20024;-85
2021/05/26 05:07:47;;;;;;;18.45;6.97;;;;;;;12.88;67.36;101191.03;5094638;28;20032;-85
2021/05/26 05:10:13;;;;;;;18.35;7.57;;;;;;;12.87;67.07;101182.22;5108238;28;20032;-86
2021/05/26 05:12:39;;;;;;;17.25;7.63;;;;;;;12.89;66.99;101191.00;5093880;28;20028;-86
2021/05/26 05:15:06;;;;;;;14.45;7.63;;;;;;;12.90;67.41;101184.78;5094147;28;20059;-85
2021/05/26 05:17:33;;;;;;;22.60;8.00;;;;;;;12.95;66.75;101182.88;5092116;28;20035;-86
2021/05/26 05:19:59;;;;;;;17.30;7.85;;;;;;;12.91;67.13;101178.56;5092026;28;20028;-86
2021/05/26 05:22:25;;;;;;;15.80;8.57;;;;;;;12.70;67.61;101184.41;5098893;28;20475;-86
2021/05/26 05:24:51;;;;;;;18.88;8.45;;;;;;;12.87;67.33;101186.63;5099477;28;20429;-86
2021/05/26 05:27:17;;;;;;;21.17;9.05;;;;;;;12.85;67.75;101180.50;5098920;28;20072;-86
2021/05/26 05:29:43;;;;;;;14.40;8.10;;;;;;;13.06;67.22;101184.38;5098243;28;20039;-87
2021/05/26 05:32:09;;;;;;;15.82;8.27;;;;;;;13.05;67.00;101180.00;5087846;28;20039;-84
2021/05/26 05:34:36;;;;;;;20.75;9.20;;;;;;;13.22;66.98;101180.44;5090913;28;20394;-85
2021/05/26 05:37:02;;;;;;;17.80;8.13;;;;;;;13.23;66.59;101189.28;5088067;28;20537;-86
2021/05/26 05:39:28;;;;;;;18.92;9.88;;;;;;;13.16;67.40;101185.94;5096650;28;20491;-89
2021/05/26 05:41:54;;;;;;;21.67;9.60;;;;;;;13.33;66.77;101177.50;5078207;28;20036;-84
2021/05/26 05:44:20;;;;;;;19.67;9.57;;;;;;;13.40;66.16;101192.41;5098109;28;20016;-78
2021/05/26 05:46:46;;;;;;;21.33;10.25;;;;;;;13.24;67.00;101183.94;5090680;28;20035;-87
2021/05/26 05:49:12;;;;;;;22.00;10.90;;;;;;;13.29;66.65;101185.63;5095235;28;20024;-88
2021/05/26 05:51:39;;;;;;;20.80;9.75;;;;;;;13.44;65.96;101179.91;5107939;28;20560;-84
2021/05/26 05:54:09;;;;;;;18.00;10.70;;;;;;;13.25;66.87;101184.81;5101511;28;20028;-86
2021/05/26 05:56:35;;;;;;;18.98;11.40;;;;;;;13.44;66.13;101177.25;5084873;28;20036;-87
2021/05/26 05:59:02;;;;;;;23.00;13.23;;;;;;;13.21;66.75;101189.34;5090554;28;20043;-90
2021/05/26 06:01:28;;;;;;;23.77;12.80;;;;;;;13.35;65.85;101186.31;5094197;28;20565;-89
2021/05/26 06:03:54;;;;;;;20.02;12.05;;;;;;;13.39;66.39;101187.16;5095391;28;20078;-88
2021/05/26 06:06:21;;;;;;;15.35;11.68;;;;;;;13.50;66.03;101178.88;5090734;28;20161;-88
2021/05/26 06:08:47;;;;;;;28.70;12.35;;;;;;;13.39;66.27;101182.69;5091193;28;20024;-88
2021/05/26 06:11:13;;;;;;;25.35;12.70;;;;;;;13.59;65.28;101182.19;5089825;28;20340;-84
2021/05/26 06:13:42;;;;;;;21.42;13.63;;;;;;;13.38;66.67;101180.06;5090081;28;20452;-88
2021/05/26 06:16:08;;;;;;;18.95;12.35;;;;;;;13.57;65.98;101175.13;5052549;28;20097;-89
2021/05/26 06:18:34;;;;;;;21.15;12.30;;;;;;;13.51;65.67;101170.84;5089359;28;20035;-87
2021/05/26 06:21:00;;;;;;;23.23;12.13;;;;;;;13.32;66.43;101175.78;5086939;28;20523;-87
2021/05/26 06:23:27;;;;;;;22.42;14.40;;;;;;;13.69;65.60;101169.47;5077885;28;20028;-80
2021/05/26 06:25:54;;;;;;;23.67;13.55;;;;;;;13.49;66.02;101172.66;5114273;28;20024;-87
2021/05/26 06:28:21;;;;;;;21.67;12.50;;;;;;;13.34;66.49;101178.38;5112519;28;20034;-87
2021/05/26 06:30:47;;;;;;;24.45;14.95;;;;;;;13.45;66.20;101176.34;5108421;28;20049;-87
2021/05/26 06:33:13;;;;;;;24.23;12.63;;;;;;;13.50;66.23;101163.78;5099949;28;20111;-88
2021/05/26 06:35:40;;;;;;;25.40;12.38;;;;;;;13.53;65.56;101169.03;5092002;28;20107;-86
2021/05/26 06:38:06;;;;;;;21.63;13.18;;;;;;;13.64;65.91;101173.19;5093301;28;20058;-86
2021/05/26 06:40:32;;;;;;;19.25;12.57;;;;;;;13.46;66.17;101172.78;5097979;28;20028;-86
2021/05/26 06:42:58;;;;;;;20.80;10.63;;;;;;;13.88;64.82;101174.28;5100261;28;20024;-86
2021/05/26 06:45:25;;;;;;;22.88;11.38;;;;;;;13.85;65.32;101169.03;5093877;28;20416;-83
2021/05/26 06:47:51;;;;;;;21.13;10.73;;;;;;;13.98;64.56;101165.13;5094422;28;20081;-86
2021/05/26 06:50:19;;;;;;;21.85;11.85;;;;;;;13.86;65.00;101174.31;5100842;28;20106;-86
2021/05/26 06:52:46;;;;;;;21.65;11.30;;;;;;;13.82;65.16;101169.13;5079912;28;20038;-85
2021/05/26 06:55:12;;;;;;;15.25;9.75;;;;;;;14.06;64.48;101163.09;5092276;28;20059;-86
2021/05/26 06:57:38;;;;;;;16.83;11.00;;;;;;;14.07;64.60;101170.16;5106307;28;20032;-87
2021/05/26 07:00:05;;;;;;;16.23;8.70;;;;;;;14.10;64.25;101166.53;5112921;28;20015;-90
2021/05/26 07:02:33;;;;;;;18.83;11.00;;;;;;;14.22;64.19;101163.50;5112119;28;20024;-91
2021/05/26 07:04:59;;;;;;;14.98;9.43;;;;;;;14.22;64.38;101163.50;5111220;28;20079;-90
2021/05/26 07:07:25;;;;;;;13.85;9.45;;;;;;;14.39;64.44;101167.44;5112075;28;20124;-92
2021/05/26 07:09:51;;;;;;;20.17;9.23;;;;;;;14.29;64.22;101168.66;5109356;28;20040;-93
2021/05/26 07:12:18;;;;;;;17.73;9.75;;;;;;;14.39;64.36;101163.00;5111340;28;20502;-92
2021/05/26 07:14:46;;;;;;;13.65;8.90;;;;;;;14.53;64.00;101167.91;5080176;28;20514;-90
2021/05/26 07:17:12;;;;;;;18.13;8.90;;;;;;;14.55;63.25;101170.50;5094147;28;20036;-91
2021/05/26 07:19:38;;;;;;;16.70;9.18;;;;;;;14.55;63.81;101165.19;5088883;28;20375;-94
2021/05/26 07:22:04;;;;;;;16.35;8.18;;;;;;;14.65;63.79;101169.31;5069408;28;20387;-91
2021/05/26 07:24:30;;;;;;;19.75;7.75;;;;;;;14.83;63.21;101159.00;5098725;28;20035;-91
2021/05/26 07:26:56;;;;;;;10.95;7.18;;;;;;;14.83;62.96;101159.88;5107701;28;20040;-91
2021/05/26 07:29:23;;;;;;;16.08;7.57;;;;;;;14.78;62.67;101166.25;5106707;28;20023;-93
2021/05/26 07:31:49;;;;;;;16.55;7.43;;;;;;;14.90;62.16;101170.34;5109672;28;20517;-91
2021/05/26 07:34:15;;;;;;;14.10;6.65;;;;;;;14.87;61.39;101161.50;5104936;28;20036;-86
2021/05/26 07:36:46;;;;;;;15.77;7.78;;;;;;;15.06;61.37;101168.03;5109608;28;20070;-86
2021/05/26 07:39:13;;;;;;;17.20;6.93;;;;;;;15.14;61.24;101164.19;5103560;28;20355;-87
2021/05/26 07:41:39;;;;;;;11.40;6.32;;;;;;;15.03;61.14;101161.88;5090464;28;20425;-87
2021/05/26 07:44:05;;;;;;;11.73;5.80;;;;;;;15.22;60.66;101168.41;5087819;28;20051;-88
2021/05/26 07:46:31;;;;;;;11.95;5.68;;;;;;;15.49;60.58;101154.06;5096126;28;20032;-83
2021/05/26 07:48:58;;;;;;;17.35;5.93;;;;;;;15.42;58.73;101162.38;5073223;28;20032;-87
2021/05/26 07:51:29;;;;;;;9.63;4.95;;;;;;;15.46;59.63;101159.50;5092100;28;20138;-88
2021/05/26 07:53:56;;;;;;;10.90;5.23;;;;;;;15.59;58.73;101143.03;5104298;28;20398;-87
2021/05/26 07:56:23;;;;;;;14.50;5.53;;;;;;;15.63;58.39;101155.38;5108341;28;20286;-88
2021/05/26 07:58:49;;;;;;;16.15;5.18;;;;;;;15.51;58.74;101156.69;5111371;28;20042;-90
2021/05/26 08:01:15;;;;;;;10.90;5.30;;;;;;;15.36;58.86;101158.09;5107666;28;20024;-91
2021/05/26 08:03:42;;;;;;;11.93;5.25;;;;;;;15.25;59.92;101165.59;5082683;28;20489;-89
2021/05/26 08:06:09;;;;;;;10.50;5.90;;;;;;;15.35;59.54;101154.56;5096818;28;20030;-90
2021/05/26 08:08:35;;;;;;;10.80;5.03;;;;;;;15.26;59.57;101167.34;5099021;28;20028;-79
2021/05/26 08:11:04;;;;;;;13.18;6.75;;;;;;;15.04;60.58;101157.41;5092541;28;20055;-79
2021/05/26 08:13:31;;;;;;;14.02;4.80;;;;;;;14.87;60.37;101164.16;5092212;28;20044;-79
2021/05/26 08:15:57;;;;;;;12.98;3.97;;;;;;;14.93;59.96;101159.56;5091956;28;20036;-78
2021/05/26 08:18:23;;;;;;;6.20;3.40;;;;;;;14.93;59.77;101172.91;5092121;28;20449;-80
2021/05/26 08:20:49;;;;;;;7.43;3.08;;;;;;;14.84;59.52;101161.63;5092358;28;20020;-80
2021/05/26 08:23:15;;;;;;;17.17;3.15;;;;;;;14.92;59.36;101160.50;5092502;28;20024;-87
2021/05/26 08:25:42;;;;;;;7.43;2.90;;;;;;;14.80;58.92;101159.09;5058883;28;20107;-91
2021/05/26 08:28:08;;;;;;;7.25;3.22;;;;;;;14.88;58.96;101157.91;5093872;28;20024;-93
2021/05/26 08:30:46;;;;;;;11.75;3.33;;;;;;;15.01;58.93;101154.84;5102618;28;20059;-93
2021/05/26 08:33:14;;;;;;;7.40;2.78;;;;;;;14.89;58.82;101153.44;5093304;28;20032;-82
2021/05/26 08:35:40;;;;;;;9.63;3.35;;;;;;;14.88;58.60;101151.72;5099256;28;20099;-85
2021/05/26 08:38:06;;;;;;;13.05;3.00;;;;;;;15.05;58.68;101151.13;5092906;28;20471;-84
2021/05/26 08:40:32;;;;;;;4.70;2.65;;;;;;;15.18;58.48;101147.13;5092779;28;20467;-82
2021/05/26 08:42:59;;;;;;;10.60;3.05;;;;;;;15.10;58.78;101156.31;5100160;28;20082;-82
2021/05/26 08:45:26;;;;;;;7.53;2.40;;;;;;;15.17;58.24;101148.06;5104821;28;20070;-83
2021/05/26 08:47:53;;;;;;;6.07;2.80;;;;;;;15.25;58.21;101149.59;5099636;28;20024;-83
2021/05/26 08:50:20;;;;;;;9.63;3.45;;;;;;;15.18;58.61;101139.13;5097671;28;20111;-86
2021/05/26 08:52:46;;;;;;;8.27;2.95;;;;;;;15.23;58.42;101135.41;5091934;28;20431;-91
2021/05/26 08:55:14;;;;;;;7.55;3.15;;;;;;;15.32;58.73;101137.78;5092641;28;22458;-87
2021/05/26 08:57:40;;;;;;;5.95;3.17;;;;;;;15.44;58.54;101132.00;5092716;28;20108;-86
2021/05/26 09:00:08;;;;;;;4.95;2.75;;;;;;;15.51;58.93;101129.97;5093583;28;20109;-90
2021/05/26 09:02:35;;;;;;;7.43;3.35;;;;;;;15.67;58.14;101136.50;5107858;28;20039;-89
2021/05/26 09:05:01;;;;;;;8.20;2.78;;;;;;;15.90;57.97;101124.13;5087982;28;20059;-91
2021/05/26 09:07:33;;;;;;;6.80;2.70;;;;;;;16.17;57.27;101127.56;5075109;28;20028;-91
2021/05/26 09:10:05;;;;;;;6.72;2.38;;;;;;;15.97;54.88;101127.44;5092667;28;20115;-89
2021/05/26 09:12:41;;;;;;;7.05;2.05;;;;;;;16.14;52.04;101119.63;5095617;28;20445;-92
2021/05/26 09:15:32;;;;;;;6.18;2.00;;;;;;;16.34;53.62;101120.66;5094474;28;20107;-90
2021/05/26 09:18:00;;;;;;;6.47;2.10;;;;;;;16.35;53.48;101122.41;5083802;28;20035;-91
2021/05/26 09:28:39;;;;;;;7.38;1.88;;;;;;;16.70;51.18;101113.88;4935521;27;4107387;-86
2021/05/26 09:31:08;;;;;;;6.32;2.10;;;;;;;16.93;50.23;101121.84;5075397;28;20059;-89
2021/05/26 09:33:43;;;;;;;6.60;1.80;;;;;;;17.12;50.87;101123.72;5058656;28;20036;-88
2021/05/26 09:39:41;;;;;;;6.05;1.80;;;;;;;17.48;49.04;101116.84;4509077;22;20487906;31
2021/05/26 09:45:25;;;;;;;5.22;1.98;;;;;;;17.20;48.67;101131.47;5105135;27;20209;-89
2021/05/26 09:47:55;;;;;;;4.72;1.75;;;;;;;17.31;49.06;101126.50;5104917;28;20126;-93
2021/05/26 09:53:18;;;;;;;9.18;2.75;;;;;;;16.91;49.72;101147.81;5059752;28;20425;-95
2021/05/26 09:55:46;;;;;;;8.13;2.25;;;;;;;16.79;50.11;101153.66;5045777;28;20060;-92
2021/05/26 09:58:17;;;;;;;4.05;2.60;;;;;;;16.43;52.85;101152.38;5041334;28;20076;-96
2021/05/26 10:00:47;;;;;;;8.00;3.05;;;;;;;16.28;53.77;101156.53;5048078;28;20044;-90
2021/05/26 10:03:14;;;;;;;4.18;2.30;;;;;;;15.71;55.71;101166.66;5031205;28;20037;-94
2021/05/26 10:05:41;;;;;;;6.35;2.15;;;;;;;15.51;56.53;101178.94;5032134;28;20048;-91
2021/05/26 10:08:15;;;;;;;9.52;2.47;;;;;;;15.42;57.80;101173.03;5048526;28;20029;-94
2021/05/26 10:10:47;;;;;;;6.90;2.45;;;;;;;15.37;58.11;101175.88;5046759;28;20030;-94
2021/05/26 10:13:13;;;;;;;5.93;2.60;;;;;;;15.33;58.89;101163.56;5041454;28;20058;-95
2021/05/26 10:15:42;;;;;;;5.55;2.88;;;;;;;15.34;59.02;101167.97;5045613;28;20048;-96
2021/05/26 10:18:09;;;;;;;4.97;2.60;;;;;;;15.27;59.21;101164.63;5044367;28;20055;-84
2021/05/26 10:20:38;;;;;;;7.18;3.50;;;;;;;15.35;59.08;101172.38;5033200;28;20481;-86
2021/05/26 10:23:07;;;;;;;4.45;2.60;;;;;;;15.30;59.17;101177.00;5035260;28;20536;-89
2021/05/26 10:25:40;;;;;;;8.30;3.22;;;;;;;15.37;59.31;101179.41;5034549;28;20032;-87
2021/05/26 10:28:06;;;;;;;9.00;2.85;;;;;;;15.44;59.27;101176.50;5034731;28;20030;-89
2021/05/26 10:30:47;;;;;;;6.00;3.17;;;;;;;15.77;59.19;101171.75;5035176;28;20030;-90
2021/05/26 10:33:13;;;;;;;3.08;2.72;;;;;;;15.61;58.48;101178.59;5034929;28;20068;-84
2021/05/26 10:35:57;;;;;;;5.38;2.90;;;;;;;15.88;57.51;101175.91;5034881;28;20026;-86
2021/05/26 10:38:24;;;;;;;3.50;2.78;;;;;;;15.95;57.61;101159.56;5033869;28;20036;-87
2021/05/26 10:40:52;;;;;;;5.75;3.35;;;;;;;16.10;57.21;101165.25;5032866;28;20038;-83
2021/05/26 10:46:05;;;;;;;4.57;2.50;;;;;;;16.42;55.97;101182.72;5071885;27;20464;-83
2021/05/26 10:51:57;;;;;;;4.82;1.40;;;;;;;16.48;52.75;101179.81;5063748;28;20418;-87
2021/05/26 10:57:27;;;;;;;2.30;0.90;;;;;;;16.34;52.91;101184.84;5130439;27;20387;-86
2021/05/26 11:00:22;;;;;;;2.72;0.80;;;;;;;16.40;51.50;101189.06;5127100;28;20379;-86
2021/05/26 11:03:28;;;;;;;1.42;0.82;;;;;;;16.58;51.58;101183.00;5109857;28;20081;-86
2021/05/26 11:05:56;;;;;;;1.92;0.52;;;;;;;16.76;51.86;101192.09;5109338;28;20034;-85
2021/05/26 11:19:31;;;;;;;2.42;0.65;;;;;;;17.28;48.12;101205.19;5018651;27;2045052;-86
2021/05/26 11:24:45;;;;;;;1.55;0.60;;;;;;;17.37;46.86;101211.06;5087552;27;20393;-88
2021/05/26 11:27:27;;;;;;;3.45;0.85;;;;;;;17.84;47.27;101197.38;5069032;28;20021;-88
2021/05/26 11:29:56;;;;;;;2.15;0.70;;;;;;;17.85;46.51;101203.63;5059265;28;20504;-88
2021/05/26 11:32:24;;;;;;;2.10;0.55;;;;;;;17.69;45.69;101206.97;5048179;28;20420;-89
2021/05/26 11:34:54;;;;;;;0.80;0.60;;;;;;;17.58;45.47;101211.94;5049665;28;20036;-88
2021/05/26 11:37:37;;;;;;;2.20;0.80;;;;;;;17.51;45.32;101207.78;5047176;28;20037;-87
2021/05/26 11:40:19;;;;;;;1.58;0.77;;;;;;;17.37;44.13;101219.97;5046334;28;20055;-87
2021/05/26 11:42:46;;;;;;;2.70;0.70;;;;;;;17.38;44.75;101216.34;5046409;28;20036;-87
2021/05/26 11:45:14;;;;;;;3.30;0.77;;;;;;;17.49;44.65;101209.66;5049307;28;20025;-86
2021/05/26 11:47:43;;;;;;;3.05;1.13;;;;;;;17.45;45.33;101209.78;5049183;28;20025;-88
2021/05/26 11:55:42;;;;;;;4.43;0.88;;;;;;;17.16;46.80;101216.41;5057078;27;2489969;-86
2021/05/26 11:58:08;;;;;;;2.97;1.40;;;;;;;17.02;47.74;101222.28;5135673;27;20054;-86
2021/05/26 12:00:37;;;;;;;5.82;1.95;;;;;;;16.87;48.70;101222.91;5134128;27;20027;-85
2021/05/26 12:03:08;;;;;;;3.40;1.23;;;;;;;16.75;49.37;101217.13;5129629;27;20028;-86
2021/05/26 12:05:51;;;;;;;2.95;1.10;;;;;;;16.95;48.79;101218.16;5127193;27;20019;-86
2021/05/26 12:11:04;;;;;;;2.58;1.60;;;;;;;17.23;48.01;101217.00;5052935;28;20493;-83
2021/05/26 12:13:35;;;;;;;3.17;1.50;;;;;;;17.64;47.12;101219.72;5037199;28;20456;-85